sensor_id;sensor_type;location;lat;lon;timestamp;temperature;humidity
4451;DHT22;2238;50.180;9.230;2022-11-12T00:02:36;6.10;99.90
4451;DHT22;2238;50.180;9.230;2022-11-12T00:05:37;5.90;99.90
4451;DHT22;2238;50.180;9.230;2022-11-12T00:08:37;5.50;99.90
4451;DHT22;2238;50.180;9.230;2022-11-12T00:11:38;5.60;99.90
4451;DHT22;2238;50.180;9.230;2022-11-12T00:14:38;5.40;99.90
4451;DHT22;2238;50.180;9.230;2022-11-12T00:17:39;5.50;99.90
4451;DHT22;2238;50.180;9.230;2022-11-12T00:20:40;5.30;99.90
4451;DHT22;2238;50.180;9.230;2022-11-12T00:23:40;5.40;99.90
4451;DHT22;2238;50.180;9.230;2022-11-12T00:26:41;5.40;99.90
4451;DHT22;2238;50.180;9.230;2022-11-12T00:29:41;4.90;99.90
4451;DHT22;2238;50.180;9.230;2022-11-12T00:32:42;4.70;99.90
4451;DHT22;2238;50.180;9.230;2022-11-12T00:35:42;4.70;99.90
4451;DHT22;2238;50.180;9.230;2022-11-12T00:38:43;4.90;99.90
4451;DHT22;2238;50.180;9.230;2022-11-12T00:41:43;4.70;99.90
4451;DHT22;2238;50.180;9.230;2022-11-12T00:44:44;4.70;99.90
4451;DHT22;2238;50.180;9.230;2022-11-12T00:47:45;4.70;99.90
4451;DHT22;2238;50.180;9.230;2022-11-12T00:50:46;5.20;99.90
4451;DHT22;2238;50.180;9.230;2022-11-12T00:53:47;5.30;99.90
4451;DHT22;2238;50.180;9.230;2022-11-12T00:56:48;5.30;99.90
4451;DHT22;2238;50.180;9.230;2022-11-12T00:59:49;5.50;99.90
4451;DHT22;2238;50.180;9.230;2022-11-12T01:02:49;5.30;99.90
4451;DHT22;2238;50.180;9.230;2022-11-12T01:05:50;5.10;99.90
4451;DHT22;2238;50.180;9.230;2022-11-12T01:08:53;5.00;99.90
4451;DHT22;2238;50.180;9.230;2022-11-12T01:11:54;5.30;99.90
4451;DHT22;2238;50.180;9.230;2022-11-12T01:14:54;5.30;99.90
4451;DHT22;2238;50.180;9.230;2022-11-12T01:17:56;4.70;99.90
4451;DHT22;2238;50.180;9.230;2022-11-12T01:21:00;4.80;99.90
4451;DHT22;2238;50.180;9.230;2022-11-12T01:24:01;5.10;99.90
4451;DHT22;2238;50.180;9.230;2022-11-12T01:27:02;5.40;99.90
4451;DHT22;2238;50.180;9.230;2022-11-12T01:30:03;5.40;99.90
4451;DHT22;2238;50.180;9.230;2022-11-12T01:33:03;5.80;99.90
4451;DHT22;2238;50.180;9.230;2022-11-12T01:36:04;5.30;99.90
4451;DHT22;2238;50.180;9.230;2022-11-12T01:39:06;4.90;99.90
4451;DHT22;2238;50.180;9.230;2022-11-12T01:42:07;5.00;99.90
4451;DHT22;2238;50.180;9.230;2022-11-12T01:45:13;4.70;99.90
4451;DHT22;2238;50.180;9.230;2022-11-12T01:48:37;4.20;99.90
4451;DHT22;2238;50.180;9.230;2022-11-12T01:51:43;4.10;99.90
4451;DHT22;2238;50.180;9.230;2022-11-12T01:54:46;4.40;99.90
4451;DHT22;2238;50.180;9.230;2022-11-12T01:57:57;4.20;99.90
4451;DHT22;2238;50.180;9.230;2022-11-12T02:01:00;3.80;99.90
4451;DHT22;2238;50.180;9.230;2022-11-12T02:04:01;3.60;99.90
4451;DHT22;2238;50.180;9.230;2022-11-12T02:07:02;3.60;99.90
4451;DHT22;2238;50.180;9.230;2022-11-12T02:10:05;3.60;99.90
4451;DHT22;2238;50.180;9.230;2022-11-12T02:13:07;3.50;99.90
4451;DHT22;2238;50.180;9.230;2022-11-12T02:16:33;3.50;99.90
4451;DHT22;2238;50.180;9.230;2022-11-12T02:19:36;3.60;99.90
4451;DHT22;2238;50.180;9.230;2022-11-12T02:22:37;3.60;99.90
4451;DHT22;2238;50.180;9.230;2022-11-12T02:25:37;3.70;99.90
4451;DHT22;2238;50.180;9.230;2022-11-12T02:28:38;3.70;99.90
4451;DHT22;2238;50.180;9.230;2022-11-12T02:31:38;4.00;99.90
4451;DHT22;2238;50.180;9.230;2022-11-12T02:34:39;4.30;99.90
4451;DHT22;2238;50.180;9.230;2022-11-12T02:37:40;4.40;99.90
4451;DHT22;2238;50.180;9.230;2022-11-12T02:40:40;4.70;99.90
4451;DHT22;2238;50.180;9.230;2022-11-12T02:43:42;4.80;99.90
4451;DHT22;2238;50.180;9.230;2022-11-12T02:46:42;4.90;99.90
4451;DHT22;2238;50.180;9.230;2022-11-12T02:49:43;4.90;99.90
4451;DHT22;2238;50.180;9.230;2022-11-12T02:52:44;4.90;99.90
4451;DHT22;2238;50.180;9.230;2022-11-12T02:55:44;4.90;99.90
4451;DHT22;2238;50.180;9.230;2022-11-12T02:58:45;5.00;99.90
4451;DHT22;2238;50.180;9.230;2022-11-12T03:01:45;4.80;99.90
4451;DHT22;2238;50.180;9.230;2022-11-12T03:04:46;4.50;99.90
4451;DHT22;2238;50.180;9.230;2022-11-12T03:07:46;4.10;99.90
4451;DHT22;2238;50.180;9.230;2022-11-12T03:10:47;4.00;99.90
4451;DHT22;2238;50.180;9.230;2022-11-12T03:13:48;3.80;99.90
4451;DHT22;2238;50.180;9.230;2022-11-12T03:16:48;3.80;99.90
4451;DHT22;2238;50.180;9.230;2022-11-12T03:19:49;3.80;99.90
4451;DHT22;2238;50.180;9.230;2022-11-12T03:22:58;3.50;99.90
4451;DHT22;2238;50.180;9.230;2022-11-12T03:26:02;3.50;99.90
4451;DHT22;2238;50.180;9.230;2022-11-12T03:29:02;3.80;99.90
4451;DHT22;2238;50.180;9.230;2022-11-12T03:32:03;3.70;99.90
4451;DHT22;2238;50.180;9.230;2022-11-12T03:35:04;3.60;99.90
4451;DHT22;2238;50.180;9.230;2022-11-12T03:38:05;3.90;99.90
4451;DHT22;2238;50.180;9.230;2022-11-12T03:41:06;4.30;99.90
4451;DHT22;2238;50.180;9.230;2022-11-12T03:44:06;4.20;99.90
4451;DHT22;2238;50.180;9.230;2022-11-12T03:47:07;4.40;99.90
4451;DHT22;2238;50.180;9.230;2022-11-12T03:50:08;4.60;99.90
4451;DHT22;2238;50.180;9.230;2022-11-12T03:53:09;4.60;99.90
4451;DHT22;2238;50.180;9.230;2022-11-12T03:56:10;4.70;99.90
4451;DHT22;2238;50.180;9.230;2022-11-12T03:59:10;4.70;99.90
4451;DHT22;2238;50.180;9.230;2022-11-12T04:02:11;4.70;99.90
4451;DHT22;2238;50.180;9.230;2022-11-12T04:05:14;4.50;99.90
4451;DHT22;2238;50.180;9.230;2022-11-12T04:08:33;4.50;99.90
4451;DHT22;2238;50.180;9.230;2022-11-12T04:11:37;3.90;99.90
4451;DHT22;2238;50.180;9.230;2022-11-12T04:14:37;3.50;99.90
4451;DHT22;2238;50.180;9.230;2022-11-12T04:17:38;3.50;99.90
4451;DHT22;2238;50.180;9.230;2022-11-12T04:20:57;3.40;99.90
4451;DHT22;2238;50.180;9.230;2022-11-12T04:27:45;4.00;99.90
4451;DHT22;2238;50.180;9.230;2022-11-12T04:30:46;4.20;99.90
4451;DHT22;2238;50.180;9.230;2022-11-12T04:33:46;4.30;99.90
4451;DHT22;2238;50.180;9.230;2022-11-12T04:36:47;4.30;99.90
4451;DHT22;2238;50.180;9.230;2022-11-12T04:39:47;3.70;99.90
4451;DHT22;2238;50.180;9.230;2022-11-12T04:42:48;3.70;99.90
4451;DHT22;2238;50.180;9.230;2022-11-12T04:46:08;3.50;99.90
4451;DHT22;2238;50.180;9.230;2022-11-12T04:49:08;3.50;99.90
4451;DHT22;2238;50.180;9.230;2022-11-12T04:52:09;3.50;99.90
4451;DHT22;2238;50.180;9.230;2022-11-12T04:55:10;3.60;99.90
4451;DHT22;2238;50.180;9.230;2022-11-12T04:58:10;3.50;99.90
4451;DHT22;2238;50.180;9.230;2022-11-12T05:01:11;3.60;99.90
4451;DHT22;2238;50.180;9.230;2022-11-12T05:04:11;3.50;99.90
4451;DHT22;2238;50.180;9.230;2022-11-12T05:07:13;3.50;99.90
4451;DHT22;2238;50.180;9.230;2022-11-12T05:10:14;3.50;99.90
4451;DHT22;2238;50.180;9.230;2022-11-12T05:13:15;3.30;99.90
4451;DHT22;2238;50.180;9.230;2022-11-12T05:16:16;3.20;99.90
4451;DHT22;2238;50.180;9.230;2022-11-12T05:19:17;2.90;99.90
4451;DHT22;2238;50.180;9.230;2022-11-12T05:22:18;2.90;99.90
4451;DHT22;2238;50.180;9.230;2022-11-12T05:25:18;3.20;99.90
4451;DHT22;2238;50.180;9.230;2022-11-12T05:28:19;2.90;99.90
4451;DHT22;2238;50.180;9.230;2022-11-12T05:31:19;2.90;99.90
4451;DHT22;2238;50.180;9.230;2022-11-12T05:34:20;3.40;99.90
4451;DHT22;2238;50.180;9.230;2022-11-12T05:37:21;3.80;99.90
4451;DHT22;2238;50.180;9.230;2022-11-12T05:40:21;3.90;99.90
4451;DHT22;2238;50.180;9.230;2022-11-12T05:43:22;4.00;99.90
4451;DHT22;2238;50.180;9.230;2022-11-12T05:46:22;3.90;99.90
4451;DHT22;2238;50.180;9.230;2022-11-12T05:49:23;3.80;99.90
4451;DHT22;2238;50.180;9.230;2022-11-12T05:52:24;3.90;99.90
4451;DHT22;2238;50.180;9.230;2022-11-12T05:55:24;4.10;99.90
4451;DHT22;2238;50.180;9.230;2022-11-12T05:58:25;4.10;99.90
4451;DHT22;2238;50.180;9.230;2022-11-12T06:01:25;3.70;99.90
4451;DHT22;2238;50.180;9.230;2022-11-12T06:04:26;3.80;99.90
4451;DHT22;2238;50.180;9.230;2022-11-12T06:07:27;3.90;99.90
4451;DHT22;2238;50.180;9.230;2022-11-12T06:10:27;4.10;99.90
4451;DHT22;2238;50.180;9.230;2022-11-12T06:13:28;3.70;99.90
4451;DHT22;2238;50.180;9.230;2022-11-12T06:16:30;3.70;99.90
4451;DHT22;2238;50.180;9.230;2022-11-12T06:19:31;3.40;99.90
4451;DHT22;2238;50.180;9.230;2022-11-12T06:22:31;3.20;99.90
4451;DHT22;2238;50.180;9.230;2022-11-12T06:25:32;3.30;99.90
4451;DHT22;2238;50.180;9.230;2022-11-12T06:28:32;3.30;99.90
4451;DHT22;2238;50.180;9.230;2022-11-12T06:31:33;3.40;99.90
4451;DHT22;2238;50.180;9.230;2022-11-12T06:34:33;3.40;99.90
4451;DHT22;2238;50.180;9.230;2022-11-12T06:37:34;3.30;99.90
4451;DHT22;2238;50.180;9.230;2022-11-12T06:40:35;3.20;99.90
4451;DHT22;2238;50.180;9.230;2022-11-12T06:43:36;3.40;99.90
4451;DHT22;2238;50.180;9.230;2022-11-12T06:46:36;3.80;99.90
4451;DHT22;2238;50.180;9.230;2022-11-12T06:49:37;3.90;99.90
4451;DHT22;2238;50.180;9.230;2022-11-12T06:52:38;4.00;99.90
4451;DHT22;2238;50.180;9.230;2022-11-12T06:55:38;3.80;99.90
4451;DHT22;2238;50.180;9.230;2022-11-12T06:58:39;4.10;99.90
4451;DHT22;2238;50.180;9.230;2022-11-12T07:01:40;4.40;99.90
4451;DHT22;2238;50.180;9.230;2022-11-12T07:04:40;4.40;99.90
4451;DHT22;2238;50.180;9.230;2022-11-12T07:07:41;4.30;99.90
4451;DHT22;2238;50.180;9.230;2022-11-12T07:10:41;4.20;99.90
4451;DHT22;2238;50.180;9.230;2022-11-12T07:13:43;4.00;99.90
4451;DHT22;2238;50.180;9.230;2022-11-12T07:16:46;3.90;99.90
4451;DHT22;2238;50.180;9.230;2022-11-12T07:19:47;3.60;99.90
4451;DHT22;2238;50.180;9.230;2022-11-12T07:22:47;3.50;99.90
4451;DHT22;2238;50.180;9.230;2022-11-12T07:25:55;3.50;99.90
4451;DHT22;2238;50.180;9.230;2022-11-12T07:28:56;3.80;99.90
4451;DHT22;2238;50.180;9.230;2022-11-12T07:31:56;3.60;99.90
4451;DHT22;2238;50.180;9.230;2022-11-12T07:34:57;3.70;99.90
4451;DHT22;2238;50.180;9.230;2022-11-12T07:37:58;3.80;99.90
4451;DHT22;2238;50.180;9.230;2022-11-12T07:41:23;4.20;99.90
4451;DHT22;2238;50.180;9.230;2022-11-12T07:44:24;4.10;99.90
4451;DHT22;2238;50.180;9.230;2022-11-12T07:47:25;4.10;99.90
4451;DHT22;2238;50.180;9.230;2022-11-12T07:50:26;4.40;99.90
4451;DHT22;2238;50.180;9.230;2022-11-12T07:53:27;4.40;99.90
4451;DHT22;2238;50.180;9.230;2022-11-12T07:56:27;4.50;99.90
4451;DHT22;2238;50.180;9.230;2022-11-12T07:59:28;4.90;99.90
4451;DHT22;2238;50.180;9.230;2022-11-12T08:02:29;4.90;99.90
4451;DHT22;2238;50.180;9.230;2022-11-12T08:05:29;5.30;99.90
4451;DHT22;2238;50.180;9.230;2022-11-12T08:08:30;5.30;99.90
4451;DHT22;2238;50.180;9.230;2022-11-12T08:11:31;5.30;99.90
4451;DHT22;2238;50.180;9.230;2022-11-12T08:14:32;5.30;99.90
4451;DHT22;2238;50.180;9.230;2022-11-12T08:17:37;5.30;99.90
4451;DHT22;2238;50.180;9.230;2022-11-12T08:20:39;5.30;99.90
4451;DHT22;2238;50.180;9.230;2022-11-12T08:23:40;5.30;99.90
4451;DHT22;2238;50.180;9.230;2022-11-12T08:26:40;5.20;99.90
4451;DHT22;2238;50.180;9.230;2022-11-12T08:29:41;5.20;99.90
4451;DHT22;2238;50.180;9.230;2022-11-12T08:32:41;5.10;99.90
4451;DHT22;2238;50.180;9.230;2022-11-12T08:35:42;5.20;99.90
4451;DHT22;2238;50.180;9.230;2022-11-12T08:38:42;5.30;99.90
4451;DHT22;2238;50.180;9.230;2022-11-12T08:41:43;4.20;99.90
4451;DHT22;2238;50.180;9.230;2022-11-12T08:44:44;5.00;99.90
4451;DHT22;2238;50.180;9.230;2022-11-12T08:47:44;5.10;99.90
4451;DHT22;2238;50.180;9.230;2022-11-12T08:50:45;5.40;99.90
4451;DHT22;2238;50.180;9.230;2022-11-12T08:53:45;5.00;99.90
4451;DHT22;2238;50.180;9.230;2022-11-12T08:56:46;5.00;99.90
4451;DHT22;2238;50.180;9.230;2022-11-12T08:59:46;5.20;99.90
4451;DHT22;2238;50.180;9.230;2022-11-12T09:02:47;5.30;99.90
4451;DHT22;2238;50.180;9.230;2022-11-12T09:05:48;5.80;99.90
4451;DHT22;2238;50.180;9.230;2022-11-12T09:08:49;6.00;99.90
4451;DHT22;2238;50.180;9.230;2022-11-12T09:11:49;6.10;99.90
4451;DHT22;2238;50.180;9.230;2022-11-12T09:14:50;6.20;99.90
4451;DHT22;2238;50.180;9.230;2022-11-12T09:18:03;6.30;99.90
4451;DHT22;2238;50.180;9.230;2022-11-12T09:21:09;6.00;99.90
4451;DHT22;2238;50.180;9.230;2022-11-12T09:24:10;6.20;99.90
4451;DHT22;2238;50.180;9.230;2022-11-12T09:27:11;6.20;99.90
4451;DHT22;2238;50.180;9.230;2022-11-12T09:30:12;6.40;99.90
4451;DHT22;2238;50.180;9.230;2022-11-12T09:33:14;6.40;99.90
4451;DHT22;2238;50.180;9.230;2022-11-12T09:36:14;6.30;99.90
4451;DHT22;2238;50.180;9.230;2022-11-12T09:39:16;6.10;99.90
4451;DHT22;2238;50.180;9.230;2022-11-12T09:42:20;6.20;99.90
4451;DHT22;2238;50.180;9.230;2022-11-12T09:45:27;6.40;99.90
4451;DHT22;2238;50.180;9.230;2022-11-12T09:48:41;6.30;99.90
4451;DHT22;2238;50.180;9.230;2022-11-12T09:51:55;6.50;99.90
4451;DHT22;2238;50.180;9.230;2022-11-12T09:55:16;6.70;99.90
4451;DHT22;2238;50.180;9.230;2022-11-12T09:58:18;6.70;99.90
4451;DHT22;2238;50.180;9.230;2022-11-12T10:01:43;6.90;99.90
4451;DHT22;2238;50.180;9.230;2022-11-12T10:04:55;7.70;99.90
4451;DHT22;2238;50.180;9.230;2022-11-12T10:15:19;8.60;99.90
4451;DHT22;2238;50.180;9.230;2022-11-12T10:22:20;7.70;99.90
4451;DHT22;2238;50.180;9.230;2022-11-12T10:25:24;7.50;99.90
4451;DHT22;2238;50.180;9.230;2022-11-12T10:28:29;7.40;99.90
4451;DHT22;2238;50.180;9.230;2022-11-12T10:31:32;7.30;99.90
4451;DHT22;2238;50.180;9.230;2022-11-12T10:52:38;7.50;99.90
4451;DHT22;2238;50.180;9.230;2022-11-12T10:55:56;7.60;99.90
4451;DHT22;2238;50.180;9.230;2022-11-12T10:59:18;7.90;99.90
4451;DHT22;2238;50.180;9.230;2022-11-12T11:02:18;8.30;99.90
4451;DHT22;2238;50.180;9.230;2022-11-12T11:09:15;7.80;99.90
4451;DHT22;2238;50.180;9.230;2022-11-12T11:12:28;7.80;99.90
4451;DHT22;2238;50.180;9.230;2022-11-12T11:15:29;7.70;99.90
4451;DHT22;2238;50.180;9.230;2022-11-12T11:18:32;7.80;99.90
4451;DHT22;2238;50.180;9.230;2022-11-12T11:21:54;7.70;99.90
4451;DHT22;2238;50.180;9.230;2022-11-12T11:25:09;7.80;99.90
4451;DHT22;2238;50.180;9.230;2022-11-12T11:28:54;7.80;99.90
4451;DHT22;2238;50.180;9.230;2022-11-12T11:44:58;7.80;99.90
4451;DHT22;2238;50.180;9.230;2022-11-12T12:04:49;8.30;99.90
4451;DHT22;2238;50.180;9.230;2022-11-12T12:08:05;8.40;99.90
4451;DHT22;2238;50.180;9.230;2022-11-12T12:18:30;8.10;99.90
4451;DHT22;2238;50.180;9.230;2022-11-12T12:21:17;8.10;99.90
4451;DHT22;2238;50.180;9.230;2022-11-12T12:24:26;8.00;99.90
4451;DHT22;2238;50.180;9.230;2022-11-12T12:27:33;8.00;99.90
4451;DHT22;2238;50.180;9.230;2022-11-12T12:30:36;8.80;99.90
4451;DHT22;2238;50.180;9.230;2022-11-12T12:33:49;9.70;99.90
4451;DHT22;2238;50.180;9.230;2022-11-12T12:36:58;8.20;99.90
4451;DHT22;2238;50.180;9.230;2022-11-12T12:43:11;8.10;99.90
4451;DHT22;2238;50.180;9.230;2022-11-12T12:46:14;8.20;99.90
4451;DHT22;2238;50.180;9.230;2022-11-12T12:49:20;8.50;99.90
4451;DHT22;2238;50.180;9.230;2022-11-12T12:52:23;10.10;99.90
4451;DHT22;2238;50.180;9.230;2022-11-12T12:58:45;8.50;99.90
4451;DHT22;2238;50.180;9.230;2022-11-12T13:02:00;8.50;99.90
4451;DHT22;2238;50.180;9.230;2022-11-12T13:05:01;8.40;99.90
4451;DHT22;2238;50.180;9.230;2022-11-12T13:08:12;8.30;99.90
4451;DHT22;2238;50.180;9.230;2022-11-12T13:15:14;8.10;99.90
4451;DHT22;2238;50.180;9.230;2022-11-12T13:28:18;8.20;99.90
4451;DHT22;2238;50.180;9.230;2022-11-12T13:31:27;9.90;99.90
4451;DHT22;2238;50.180;9.230;2022-11-12T13:34:31;8.10;99.90
4451;DHT22;2238;50.180;9.230;2022-11-12T13:37:32;8.20;99.90
4451;DHT22;2238;50.180;9.230;2022-11-12T13:43:48;8.40;99.90
4451;DHT22;2238;50.180;9.230;2022-11-12T13:46:50;8.40;99.90
4451;DHT22;2238;50.180;9.230;2022-11-12T13:49:51;8.50;99.90
4451;DHT22;2238;50.180;9.230;2022-11-12T13:52:52;8.40;99.90
4451;DHT22;2238;50.180;9.230;2022-11-12T13:55:53;8.50;99.90
4451;DHT22;2238;50.180;9.230;2022-11-12T13:58:54;8.40;99.90
4451;DHT22;2238;50.180;9.230;2022-11-12T14:01:55;8.60;99.90
4451;DHT22;2238;50.180;9.230;2022-11-12T14:04:56;8.50;99.90
4451;DHT22;2238;50.180;9.230;2022-11-12T14:08:08;8.60;99.90
4451;DHT22;2238;50.180;9.230;2022-11-12T14:18:27;7.90;99.90
4451;DHT22;2238;50.180;9.230;2022-11-12T14:21:31;7.80;99.90
4451;DHT22;2238;50.180;9.230;2022-11-12T14:24:33;7.90;99.90
4451;DHT22;2238;50.180;9.230;2022-11-12T14:27:35;8.00;99.90
4451;DHT22;2238;50.180;9.230;2022-11-12T14:30:42;8.70;99.90
4451;DHT22;2238;50.180;9.230;2022-11-12T14:33:43;7.90;99.90
4451;DHT22;2238;50.180;9.230;2022-11-12T14:36:45;9.40;99.90
4451;DHT22;2238;50.180;9.230;2022-11-12T14:39:47;8.00;99.90
4451;DHT22;2238;50.180;9.230;2022-11-12T14:42:49;9.70;99.90
4451;DHT22;2238;50.180;9.230;2022-11-12T14:45:54;9.20;99.90
4451;DHT22;2238;50.180;9.230;2022-11-12T14:48:59;7.40;99.90
4451;DHT22;2238;50.180;9.230;2022-11-12T14:55:20;7.70;99.90
4451;DHT22;2238;50.180;9.230;2022-11-12T14:58:23;8.50;99.90
4451;DHT22;2238;50.180;9.230;2022-11-12T15:01:27;7.50;99.90
4451;DHT22;2238;50.180;9.230;2022-11-12T15:04:50;8.10;99.90
4451;DHT22;2238;50.180;9.230;2022-11-12T15:08:03;7.20;99.90
4451;DHT22;2238;50.180;9.230;2022-11-12T15:14:21;7.10;99.90
4451;DHT22;2238;50.180;9.230;2022-11-12T15:17:41;7.10;99.90
4451;DHT22;2238;50.180;9.230;2022-11-12T15:20:42;7.10;99.90
4451;DHT22;2238;50.180;9.230;2022-11-12T15:24:06;7.30;99.90
4451;DHT22;2238;50.180;9.230;2022-11-12T15:27:48;7.60;99.90
4451;DHT22;2238;50.180;9.230;2022-11-12T15:31:06;7.70;99.90
4451;DHT22;2238;50.180;9.230;2022-11-12T15:34:30;7.50;99.90
4451;DHT22;2238;50.180;9.230;2022-11-12T15:37:40;9.20;99.90
4451;DHT22;2238;50.180;9.230;2022-11-12T15:40:43;7.50;99.90
4451;DHT22;2238;50.180;9.230;2022-11-12T15:43:45;8.40;99.90
4451;DHT22;2238;50.180;9.230;2022-11-12T15:46:46;8.30;99.90
4451;DHT22;2238;50.180;9.230;2022-11-12T15:49:54;7.50;99.90
4451;DHT22;2238;50.180;9.230;2022-11-12T15:52:55;7.50;99.90
4451;DHT22;2238;50.180;9.230;2022-11-12T15:55:56;7.70;99.90
4451;DHT22;2238;50.180;9.230;2022-11-12T15:58:56;7.60;99.90
4451;DHT22;2238;50.180;9.230;2022-11-12T16:01:57;7.50;99.90
4451;DHT22;2238;50.180;9.230;2022-11-12T16:04:58;7.40;99.90
4451;DHT22;2238;50.180;9.230;2022-11-12T16:07:58;8.50;99.90
4451;DHT22;2238;50.180;9.230;2022-11-12T16:10:59;7.30;99.90
4451;DHT22;2238;50.180;9.230;2022-11-12T16:14:00;7.50;99.90
4451;DHT22;2238;50.180;9.230;2022-11-12T16:17:01;7.20;99.90
4451;DHT22;2238;50.180;9.230;2022-11-12T16:20:01;7.30;99.90
4451;DHT22;2238;50.180;9.230;2022-11-12T16:23:03;7.20;99.90
4451;DHT22;2238;50.180;9.230;2022-11-12T16:26:06;7.40;99.90
4451;DHT22;2238;50.180;9.230;2022-11-12T16:29:13;7.20;99.90
4451;DHT22;2238;50.180;9.230;2022-11-12T16:32:14;6.80;99.90
4451;DHT22;2238;50.180;9.230;2022-11-12T16:35:15;6.40;99.90
4451;DHT22;2238;50.180;9.230;2022-11-12T16:38:16;6.20;99.90
4451;DHT22;2238;50.180;9.230;2022-11-12T16:41:17;6.30;99.90
4451;DHT22;2238;50.180;9.230;2022-11-12T16:44:18;8.30;99.90
4451;DHT22;2238;50.180;9.230;2022-11-12T16:47:18;6.20;99.90
4451;DHT22;2238;50.180;9.230;2022-11-12T16:50:22;6.30;99.90
4451;DHT22;2238;50.180;9.230;2022-11-12T16:53:24;6.70;99.90
4451;DHT22;2238;50.180;9.230;2022-11-12T16:56:24;6.80;99.90
4451;DHT22;2238;50.180;9.230;2022-11-12T16:59:25;6.60;99.90
4451;DHT22;2238;50.180;9.230;2022-11-12T17:02:26;6.10;99.90
4451;DHT22;2238;50.180;9.230;2022-11-12T17:05:26;6.20;99.90
4451;DHT22;2238;50.180;9.230;2022-11-12T17:08:27;6.40;99.90
4451;DHT22;2238;50.180;9.230;2022-11-12T17:11:28;6.50;99.90
4451;DHT22;2238;50.180;9.230;2022-11-12T17:14:29;7.40;99.90
4451;DHT22;2238;50.180;9.230;2022-11-12T17:17:29;5.70;99.90
4451;DHT22;2238;50.180;9.230;2022-11-12T17:20:30;5.80;99.90
4451;DHT22;2238;50.180;9.230;2022-11-12T17:23:32;5.60;99.90
4451;DHT22;2238;50.180;9.230;2022-11-12T17:26:33;5.60;99.90
4451;DHT22;2238;50.180;9.230;2022-11-12T17:29:33;5.70;99.90
4451;DHT22;2238;50.180;9.230;2022-11-12T17:32:34;6.10;99.90
4451;DHT22;2238;50.180;9.230;2022-11-12T17:35:35;6.30;99.90
4451;DHT22;2238;50.180;9.230;2022-11-12T17:38:36;6.50;99.90
4451;DHT22;2238;50.180;9.230;2022-11-12T17:41:36;6.80;99.90
4451;DHT22;2238;50.180;9.230;2022-11-12T17:44:37;6.80;99.90
4451;DHT22;2238;50.180;9.230;2022-11-12T17:47:37;6.70;99.90
4451;DHT22;2238;50.180;9.230;2022-11-12T17:50:38;6.70;99.90
4451;DHT22;2238;50.180;9.230;2022-11-12T17:53:39;6.70;99.90
4451;DHT22;2238;50.180;9.230;2022-11-12T17:56:40;7.20;99.90
4451;DHT22;2238;50.180;9.230;2022-11-12T17:59:40;7.30;99.90
4451;DHT22;2238;50.180;9.230;2022-11-12T18:02:41;7.30;99.90
4451;DHT22;2238;50.180;9.230;2022-11-12T18:05:41;7.20;99.90
4451;DHT22;2238;50.180;9.230;2022-11-12T18:08:42;6.80;99.90
4451;DHT22;2238;50.180;9.230;2022-11-12T18:11:48;6.90;99.90
4451;DHT22;2238;50.180;9.230;2022-11-12T18:14:49;6.80;99.90
4451;DHT22;2238;50.180;9.230;2022-11-12T18:17:50;6.90;99.90
4451;DHT22;2238;50.180;9.230;2022-11-12T18:20:50;6.60;99.90
4451;DHT22;2238;50.180;9.230;2022-11-12T18:23:51;6.50;99.90
4451;DHT22;2238;50.180;9.230;2022-11-12T18:26:52;7.10;99.90
4451;DHT22;2238;50.180;9.230;2022-11-12T18:29:52;6.80;99.90
4451;DHT22;2238;50.180;9.230;2022-11-12T18:32:53;6.80;99.90
4451;DHT22;2238;50.180;9.230;2022-11-12T18:36:09;6.80;99.90
4451;DHT22;2238;50.180;9.230;2022-11-12T18:39:10;6.50;99.90
4451;DHT22;2238;50.180;9.230;2022-11-12T18:42:10;6.30;99.90
4451;DHT22;2238;50.180;9.230;2022-11-12T18:45:11;6.30;99.90
4451;DHT22;2238;50.180;9.230;2022-11-12T18:48:12;7.00;99.90
4451;DHT22;2238;50.180;9.230;2022-11-12T18:51:14;6.30;99.90
4451;DHT22;2238;50.180;9.230;2022-11-12T18:54:14;5.90;99.90
4451;DHT22;2238;50.180;9.230;2022-11-12T18:57:15;5.90;99.90
4451;DHT22;2238;50.180;9.230;2022-11-12T19:00:16;6.10;99.90
4451;DHT22;2238;50.180;9.230;2022-11-12T19:03:17;6.00;99.90
4451;DHT22;2238;50.180;9.230;2022-11-12T19:06:18;5.70;99.90
4451;DHT22;2238;50.180;9.230;2022-11-12T19:09:18;5.50;99.90
4451;DHT22;2238;50.180;9.230;2022-11-12T19:12:19;5.40;99.90
4451;DHT22;2238;50.180;9.230;2022-11-12T19:15:20;5.50;99.90
4451;DHT22;2238;50.180;9.230;2022-11-12T19:18:20;5.20;99.90
4451;DHT22;2238;50.180;9.230;2022-11-12T19:21:23;5.10;99.90
4451;DHT22;2238;50.180;9.230;2022-11-12T19:24:24;5.10;99.90
4451;DHT22;2238;50.180;9.230;2022-11-12T19:27:25;5.20;99.90
4451;DHT22;2238;50.180;9.230;2022-11-12T19:30:25;5.50;99.90
4451;DHT22;2238;50.180;9.230;2022-11-12T19:33:26;5.60;99.90
4451;DHT22;2238;50.180;9.230;2022-11-12T19:36:26;5.40;99.90
4451;DHT22;2238;50.180;9.230;2022-11-12T19:39:27;5.20;99.90
4451;DHT22;2238;50.180;9.230;2022-11-12T19:42:28;5.30;99.90
4451;DHT22;2238;50.180;9.230;2022-11-12T19:45:29;5.70;99.90
4451;DHT22;2238;50.180;9.230;2022-11-12T19:48:29;6.00;99.90
4451;DHT22;2238;50.180;9.230;2022-11-12T19:51:30;6.00;99.90
4451;DHT22;2238;50.180;9.230;2022-11-12T19:54:30;5.70;99.90
4451;DHT22;2238;50.180;9.230;2022-11-12T19:57:31;5.80;99.90
4451;DHT22;2238;50.180;9.230;2022-11-12T20:00:32;6.00;99.90
4451;DHT22;2238;50.180;9.230;2022-11-12T20:03:32;6.00;99.90
4451;DHT22;2238;50.180;9.230;2022-11-12T20:06:35;5.90;99.90
4451;DHT22;2238;50.180;9.230;2022-11-12T20:09:35;5.90;99.90
4451;DHT22;2238;50.180;9.230;2022-11-12T20:12:37;6.00;99.90
4451;DHT22;2238;50.180;9.230;2022-11-12T20:15:39;6.20;99.90
4451;DHT22;2238;50.180;9.230;2022-11-12T20:18:40;6.30;99.90
4451;DHT22;2238;50.180;9.230;2022-11-12T20:21:40;6.20;99.90
4451;DHT22;2238;50.180;9.230;2022-11-12T20:24:41;6.20;99.90
4451;DHT22;2238;50.180;9.230;2022-11-12T20:27:41;6.20;99.90
4451;DHT22;2238;50.180;9.230;2022-11-12T20:30:42;6.30;99.90
4451;DHT22;2238;50.180;9.230;2022-11-12T20:33:42;6.20;99.90
4451;DHT22;2238;50.180;9.230;2022-11-12T20:36:43;6.10;99.90
4451;DHT22;2238;50.180;9.230;2022-11-12T20:39:43;6.20;99.90
4451;DHT22;2238;50.180;9.230;2022-11-12T20:42:45;6.00;99.90
4451;DHT22;2238;50.180;9.230;2022-11-12T20:45:49;6.00;99.90
4451;DHT22;2238;50.180;9.230;2022-11-12T20:48:51;6.00;99.90
4451;DHT22;2238;50.180;9.230;2022-11-12T20:51:54;6.00;99.90
4451;DHT22;2238;50.180;9.230;2022-11-12T20:54:55;5.90;99.90
4451;DHT22;2238;50.180;9.230;2022-11-12T20:57:56;5.80;99.90
4451;DHT22;2238;50.180;9.230;2022-11-12T21:00:56;5.80;99.90
4451;DHT22;2238;50.180;9.230;2022-11-12T21:03:57;6.00;99.90
4451;DHT22;2238;50.180;9.230;2022-11-12T21:06:58;6.50;99.90
4451;DHT22;2238;50.180;9.230;2022-11-12T21:09:58;6.20;99.90
4451;DHT22;2238;50.180;9.230;2022-11-12T21:12:59;6.20;99.90
4451;DHT22;2238;50.180;9.230;2022-11-12T21:16:00;6.10;99.90
4451;DHT22;2238;50.180;9.230;2022-11-12T21:19:01;6.10;99.90
4451;DHT22;2238;50.180;9.230;2022-11-12T21:22:02;6.30;99.90
4451;DHT22;2238;50.180;9.230;2022-11-12T21:25:03;6.20;99.90
4451;DHT22;2238;50.180;9.230;2022-11-12T21:28:05;6.10;99.90
4451;DHT22;2238;50.180;9.230;2022-11-12T21:31:20;5.90;99.90
4451;DHT22;2238;50.180;9.230;2022-11-12T21:34:20;5.70;99.90
4451;DHT22;2238;50.180;9.230;2022-11-12T21:37:21;5.70;99.90
4451;DHT22;2238;50.180;9.230;2022-11-12T21:40:22;5.90;99.90
4451;DHT22;2238;50.180;9.230;2022-11-12T21:43:24;5.90;99.90
4451;DHT22;2238;50.180;9.230;2022-11-12T21:46:27;6.00;99.90
4451;DHT22;2238;50.180;9.230;2022-11-12T21:49:28;6.20;99.90
4451;DHT22;2238;50.180;9.230;2022-11-12T21:52:28;6.30;99.90
4451;DHT22;2238;50.180;9.230;2022-11-12T21:55:29;6.40;99.90
4451;DHT22;2238;50.180;9.230;2022-11-12T21:58:30;6.20;99.90
4451;DHT22;2238;50.180;9.230;2022-11-12T22:01:32;6.20;99.90
4451;DHT22;2238;50.180;9.230;2022-11-12T22:04:33;6.60;99.90